Billings, MT

6:00 AM MDT on April 28, 2015 (GMT -0600)
Ironwood MT | | Change Station
CLOSE
Current Station
Personal Weather Station
Location: Billings, MT
Elevation: 3504 ft
Nearby Weather Stations

Elev 3504 ft 45.82 °N, 108.66 °W | Updated 3 seconds ago

Clear
Clear
31.1 °F
Feels Like 31 °F
N
2.3
Wind Variable Wind from SSW
Gusts 3.0 mph

Today
High -- | Low -- °F
--% Chance of Precip.
Yesterday
High -- | Low -- °F
Precip. -- in
6:06 AM 8:18 PM
Waxing Gibbous, 73% visible
Pressure 30.25 in
Visibility 10.0 miles
Clouds Few 12000 ft
Windchill 31 °F
Dew Point 29 °F
Humidity 93%
Rainfall 0.00 in
Snow Depth Not available.
UV 0 out of 12
Pollen 8.20 out of 12
Air Quality Not available.
Flu Activity Local Activity
METAR KBIL 281153Z 23009KT 10SM FEW120 04/01 A3024 RMK AO2 SLP243 T00440011 10094 20033 58005

More Conditions Fewer Conditions

Pressure 30.25 in
Visibility 10.0 miles
Clouds Few 12000 ft
Windchill 31 °F
Dew Point 29 °F
Humidity 93%
Rainfall 0.00 in
Snow Depth Not available.
UV 0 out of 12
Pollen 8.20 out of 12
Air Quality Not available.
Flu Activity Local Activity
METAR KBIL 281153Z 23009KT 10SM FEW120 04/01 A3024 RMK AO2 SLP243 T00440011 10094 20033 58005

More Conditions Fewer Conditions

10-Day Weather Forecast

Almanac

Astronomy

Apr. 28, 2015 Rise Set
Actual Time
Civil Twilight
Nautical Twilight
Astronomical Twilight
Moon
Length of Visible Light
Length of Day
Tomorrow will be .
, % of the Moon is Illuminated

Today's Extremes

State Highs State Lows

Community

WunderPhotos

Upload Photos

1,817,613 photos uploaded!

WunderBlogs® & News

Nearby

Air Quality

  Air Quality AQ Index Pollutant
Not available.

Snow Depth

Station Depth Elevation

Earthquake Activity

City Distance Mag. Time & Date
Minimum magnitude displayed is 2.5.

Coastal Water Temperatures

Place Temperature

Stations

Nearby Weather Stations

Station Location Temp. Windchill Dew Point Humidity Wind Precip. Elev Updated Type